Fall River Mills, CA (96028)

6:18 PM PST on January 24, 2017 (GMT -0800)
Soldier Mountain | | Change Station

Elev 3355 ft 41.07 °N, 121.54 °W | Updated 32 seconds ago

Clear
Clear
22.3 °F
Feels Like 22 °F
N
0.0
Wind Variable Wind from West

Today
High -- | Low -- °F
--% Chance of Precip.
Yesterday
High -- | Low -- °F
Precip. -- in
Pressure 30.22 in
Visibility 8.0 miles
Clouds Clear
Windchill 22 °F
Dew Point 22 °F
Humidity 98%
Rainfall 0.00 in
Snow Depth Not available.
7:22 AM 5:13 PM
Waning Crescent, 8% visible
METAR KMHS 250156Z AUTO 00000KT 8SM CLR M01/M04 A3007 RMK AO2 SLP233 T10111044
Pressure 30.22 in
Visibility 8.0 miles
Clouds Clear
Windchill 22 °F
Dew Point 22 °F
Humidity 98%
Rainfall 0.00 in
Snow Depth Not available.
7:22 AM 5:13 PM
Waning Crescent, 8% visible
METAR KMHS 250156Z AUTO 00000KT 8SM CLR M01/M04 A3007 RMK AO2 SLP233 T10111044

Get Your Daily Forecast Email!

Thanks for signing up!

Be on the lookout for a verification email in your inbox.

You'll start receiving the daily forecast at 8 AM.

×

10-Day Weather Forecast

Almanac

Astronomy

Jan. 24, 2017 Rise Set
Actual Time
Civil Twilight
Nautical Twilight
Astronomical Twilight
Moon
Length of Visible Light
Length of Day
Tomorrow will be .
, % of the Moon is Illuminated

Today's Extremes

State Highs State Lows

Community

WunderPhotos

Upload Photos

1,962,540 photos uploaded!

WunderBlog® & News

Nearby

Air Quality

  Air Quality AQ Index Pollutant
Not available.

Snow Depth

Station Depth Elevation

Earthquake Activity

City Distance Mag. Time & Date
Minimum magnitude displayed is 2.5.

Coastal Water Temperatures

Place Temperature

Stations

Nearby Weather Stations

Station Location Temp. Windchill Dew Point Humidity Wind Precip. Elev Updated Type
                   

Watches & Warnings

There are currently no watches in effect.